Hoken Maru — JD2909 — position and weather

sailwx.info

Track history (hours):
 
Tides and Currents Weather Stations Pressure Air Temp Water Temp Dewpoint Dewpoint Depression Visibility Wind Speed Wind Dir Waves Ship Positions

Hoken Maru

Last reported at 2018-Feb-19 11:39 UTC. Time now 2018-Feb-21 11:53 UTC.
Position N 34°01' E 132°45'.

Length 72 m; draft 3.2 m.

Type: Ship (hazmat cat D). MMSI: 431000943.

Date/timePositionNaut miles runAvg speedWind from/ knotsBaromVisibWave heightAir tempDewpointWater temp
2018-Feb-19 11:39N 34°01' E 132°45'313.3
2018-Feb-19 11:28N 33°58' E 132°44'612.7
2018-Feb-19 10:59N 33°54' E 132°38'1212.6
2018-Feb-19 10:00N 33°50' E 132°24'812.6
2018-Feb-19 09:21N 33°50' E 132°14'412.0
2018-Feb-19 09:00N 33°48' E 132°09'612.1
2018-Feb-19 08:30N 33°46' E 132°03'612.5
2018-Feb-19 08:00N 33°45' E 131°56'612.8
2018-Feb-19 07:30N 33°46' E 131°48'713.2
2018-Feb-19 07:00N 33°48' E 131°40'613.0
2018-Feb-19 06:30N 33°49' E 131°33'713.0
2018-Feb-19 06:00N 33°50' E 131°25'612.9
2018-Feb-19 05:31N 33°52' E 131°17'713.0
2018-Feb-19 05:00N 33°54' E 131°10'712.5
2018-Feb-19 04:29N 33°57' E 131°03'5 9.7
2018-Feb-19 04:00N 33°57' E 130°57'4 8.5
2018-Feb-19 03:31N 33°54' E 130°54'2 2.8
2018-Feb-19 02:55N 33°55' E 130°52'0 0.0
2018-Feb-19 02:25N 33°55' E 130°52'0 0.0
2018-Feb-19 01:55N 33°55' E 130°52'0 0.0
2018-Feb-19 01:25N 33°55' E 130°52'0 0.0
2018-Feb-19 00:55N 33°55' E 130°52'0 0.0
2018-Feb-19 00:29N 33°55' E 130°52'2 4.9
2018-Feb-19 00:00N 33°54' E 130°55'611.6
2018-Feb-18 23:30N 33°59' E 130°60'612.0
2018-Feb-18 23:00N 33°56' E 131°06'612.5
2018-Feb-18 22:30N 33°53' E 131°12'612.6
2018-Feb-18 22:00N 33°51' E 131°20'612.2
2018-Feb-18 21:30N 33°49' E 131°27'612.0
2018-Feb-18 21:00N 33°48' E 131°34'611.8
2018-Feb-18 20:30N 33°47' E 131°41'611.4
2018-Feb-18 20:00N 33°46' E 131°47'611.4
2018-Feb-18 19:27N 33°44' E 131°55'912.0
2018-Feb-18 18:44N 33°43' E 132°05'512.0
2018-Feb-18 18:21N 33°43' E 132°11'512.8
2018-Feb-18 17:56N 33°44' E 132°17'1512.7
2018-Feb-18 16:46N 33°51' E 132°33'312.4
2018-Feb-18 16:30N 33°53' E 132°35'711.8
2018-Feb-18 15:56N 33°57' E 132°42'8410.1
2018-Feb-18 07:39N 34°25' E 134°17'210.7
2018-Feb-18 07:27N 34°25' E 134°20'511.2
2018-Feb-18 07:00N 34°27' E 134°25'611.4
2018-Feb-18 06:30N 34°28' E 134°32'611.2
2018-Feb-18 06:00N 34°30' E 134°38'611.1
2018-Feb-18 05:30N 34°33' E 134°45'611.2
2018-Feb-18 05:00N 34°35' E 134°51'510.9
2018-Feb-18 04:30N 34°37' E 134°57'5 9.5
2018-Feb-18 04:00N 34°36' E 135°03'5 9.9
2018-Feb-18 03:30N 34°32' E 135°04'611.9
2018-Feb-18 03:00N 34°26' E 135°02'612.1
2018-Feb-18 02:30N 34°20' E 135°00'611.3
2018-Feb-18 02:00N 34°15' E 135°00'611.5
2018-Feb-18 01:30N 34°10' E 135°05'4 6.7
2018-Feb-18 00:58N 34°07' E 135°07'0 0.0
2018-Feb-18 00:27N 34°07' E 135°07'0 0.0
2018-Feb-18 00:00N 34°07' E 135°07'0 0.0
2018-Feb-17 23:30N 34°07' E 135°07'0 0.0
2018-Feb-17 23:00N 34°07' E 135°07'0 0.0
2018-Feb-17 22:30N 34°07' E 135°07'0 0.8
2018-Feb-17 22:00N 34°08' E 135°07'0 0.1
2018-Feb-17 21:30N 34°07' E 135°07'0 0.0
2018-Feb-17 21:00N 34°07' E 135°07'0 0.1
2018-Feb-17 20:30N 34°07' E 135°07'0 0.0
2018-Feb-17 20:00N 34°07' E 135°07'0 0.0
2018-Feb-17 19:30N 34°07' E 135°07'3 5.9
2018-Feb-17 19:00N 34°08' E 135°04'612.6
2018-Feb-17 18:30N 34°10' E 134°57'612.5
2018-Feb-17 18:00N 34°11' E 134°49'611.8
2018-Feb-17 17:30N 34°11' E 134°42'714.0
2018-Feb-17 16:59N 34°16' E 134°36'613.3
2018-Feb-17 16:30N 34°19' E 134°28'713.2
2018-Feb-17 16:00N 34°21' E 134°21'813.6
2018-Feb-17 15:25N 34°24' E 134°12'7611.4
2018-Feb-17 08:45N 33°60' E 132°45'411.3
2018-Feb-17 08:25N 33°57' E 132°42'511.2
2018-Feb-17 07:56N 33°54' E 132°37'1511.5
2018-Feb-17 06:38N 33°50' E 132°20'211.6
2018-Feb-17 06:29N 33°50' E 132°18'911.4
2018-Feb-17 05:40N 33°47' E 132°07'211.9
2018-Feb-17 05:30N 33°46' E 132°05'1812.1
2018-Feb-17 04:03N 33°56' E 131°48'113.5
2018-Feb-17 03:58N 33°57' E 131°47'612.2
2018-Feb-17 03:28N 34°02' E 131°44'1 0.4
2018-Feb-17 00:02N 34°03' E 131°45'0 0.1
2018-Feb-16 23:50N 34°03' E 131°45'2 4.6
2018-Feb-16 23:30N 34°02' E 131°43'2 3.3
2018-Feb-16 22:53N 34°02' E 131°41'0 0.0
2018-Feb-16 22:23N 34°02' E 131°41'0 0.0
2018-Feb-16 21:47N 34°02' E 131°41'0 0.0
2018-Feb-16 21:30N 34°02' E 131°41'0 0.0
2018-Feb-16 20:59N 34°02' E 131°41'0 0.0
2018-Feb-16 20:29N 34°02' E 131°41'0 0.0
2018-Feb-16 19:59N 34°02' E 131°41'0 0.0
2018-Feb-16 19:29N 34°02' E 131°41'0 0.0
2018-Feb-16 18:47N 34°02' E 131°41'0 0.0
2018-Feb-16 18:17N 34°02' E 131°41'0 0.0
2018-Feb-16 17:53N 34°02' E 131°41'0 0.0
2018-Feb-16 17:30N 34°02' E 131°41'0 0.0
2018-Feb-16 16:59N 34°02' E 131°41'0 0.0
2018-Feb-16 16:17N 34°02' E 131°41'0 0.0
2018-Feb-16 15:53N 34°02' E 131°41'0 0.0
2018-Feb-16 15:24N 34°02' E 131°41'0 0.1
2018-Feb-16 14:59N 34°02' E 131°41'0 0.1
2018-Feb-16 14:05N 34°02' E 131°41'0 0.5
2018-Feb-16 13:59N 34°02' E 131°41'2 4.6
2018-Feb-16 13:31N 33°59' E 131°41'611.8
2018-Feb-16 12:58N 33°56' E 131°47'1011.9
2018-Feb-16 12:06N 33°50' E 131°57'211.9
2018-Feb-16 11:58N 33°49' E 131°59'510.2
2018-Feb-16 11:27N 33°47' E 132°05'811.0
2018-Feb-16 10:41N 33°50' E 132°14'211.0
2018-Feb-16 10:30N 33°50' E 132°16'11 9.9
2018-Feb-16 09:25N 33°55' E 132°28'510.9
2018-Feb-16 08:56N 33°59' E 132°32'610.2
2018-Feb-16 08:23N 34°03' E 132°27'411.4
2018-Feb-16 08:00N 34°06' E 132°23'611.7
2018-Feb-16 07:29N 34°10' E 132°18'3 6.7
2018-Feb-16 07:00N 34°12' E 132°15'0 0.0
2018-Feb-16 06:30N 34°12' E 132°15'0 0.0
2018-Feb-16 05:57N 34°12' E 132°15'0 0.0
2018-Feb-16 05:30N 34°12' E 132°15'0 0.0
2018-Feb-16 04:51N 34°12' E 132°15'0 0.0
2018-Feb-16 04:27N 34°12' E 132°15'0 0.0
2018-Feb-16 03:57N 34°12' E 132°15'1 1.9
2018-Feb-16 03:30N 34°11' E 132°15'611.2
2018-Feb-16 02:59N 34°06' E 132°17'712.4
2018-Feb-16 02:27N 33°60' E 132°13'510.5
2018-Feb-16 02:00N 33°57' E 132°09'711.9
2018-Feb-16 01:25N 33°50' E 132°09'613.4
2018-Feb-16 01:00N 33°46' E 132°04'812.9
2018-Feb-16 00:24N 33°46' E 131°55'512.7
2018-Feb-16 00:00N 33°46' E 131°49'612.5
2018-Feb-15 23:30N 33°48' E 131°41'612.2
2018-Feb-15 23:00N 33°49' E 131°34'612.1
2018-Feb-15 22:30N 33°50' E 131°27'612.0
2018-Feb-15 22:00N 33°51' E 131°20'611.8
2018-Feb-15 21:30N 33°52' E 131°13'611.9
2018-Feb-15 21:00N 33°55' E 131°07'612.5
2018-Feb-15 20:30N 33°58' E 131°00'713.5
2018-Feb-15 20:00N 33°54' E 130°54'612.7
2018-Feb-15 19:30N 33°58' E 130°48'612.5
2018-Feb-15 19:01N 33°58' E 130°40'612.2
2018-Feb-15 18:30N 33°58' E 130°33'612.2
2018-Feb-15 18:00N 33°58' E 130°25'612.2
2018-Feb-15 17:30N 33°55' E 130°19'612.5
2018-Feb-15 17:00N 33°51' E 130°13'712.8
2018-Feb-15 16:30N 33°48' E 130°06'612.8
2018-Feb-15 16:00N 33°44' E 129°60'  
2018-Feb-13 11:22N 33°41' E 129°54'410.5
2018-Feb-13 10:59N 33°43' E 129°59'511.0
2018-Feb-13 10:29N 33°46' E 130°04'510.9
2018-Feb-13 10:00N 33°49' E 130°09'511.1
2018-Feb-13 09:30N 33°52' E 130°15'510.6
2018-Feb-13 09:00N 33°55' E 130°20'510.0
2018-Feb-13 08:30N 33°58' E 130°25'510.0
2018-Feb-13 08:00N 33°58' E 130°31'510.3
2018-Feb-13 07:31N 33°58' E 130°37'510.3
2018-Feb-13 07:00N 33°58' E 130°44'510.2
2018-Feb-13 06:30N 33°58' E 130°50'5 9.4
2018-Feb-13 06:01N 33°55' E 130°54'4 7.3
2018-Feb-13 05:30N 33°57' E 130°57'4 8.0
2018-Feb-13 05:00N 33°58' E 131°02'510.5
2018-Feb-13 04:30N 33°56' E 131°07'4 7.3
2018-Feb-13 04:00N 33°56' E 131°12'1 1.1
2018-Feb-13 03:30N 33°56' E 131°11'0 0.0
2018-Feb-13 02:55N 33°56' E 131°11'0 0.0
2018-Feb-13 02:25N 33°56' E 131°11'0 0.0
2018-Feb-13 01:49N 33°56' E 131°11'0 0.0
2018-Feb-13 01:25N 33°56' E 131°11'0 0.0
2018-Feb-13 01:01N 33°56' E 131°11'0 0.1
2018-Feb-13 00:30N 33°56' E 131°11'1 3.0
2018-Feb-13 00:00N 33°55' E 131°11'0 0.3
2018-Feb-12 23:28N 33°54' E 131°11'0 0.0
2018-Feb-12 22:58N 33°54' E 131°11'0 0.0
2018-Feb-12 22:28N 33°54' E 131°11'0 0.0
2018-Feb-12 21:58N 33°54' E 131°11'0 0.0
2018-Feb-12 21:22N 33°54' E 131°11'0 0.0
2018-Feb-12 20:58N 33°54' E 131°11'1 2.2
2018-Feb-12 20:31N 33°54' E 131°12'611.9
2018-Feb-12 20:00N 33°50' E 131°18'611.4
2018-Feb-12 19:30N 33°47' E 131°24'611.7
2018-Feb-12 19:00N 33°45' E 131°30'611.3
2018-Feb-12 18:30N 33°42' E 131°37'611.3
2018-Feb-12 18:00N 33°40' E 131°43'611.1
2018-Feb-12 17:29N 33°37' E 131°49'611.9
2018-Feb-12 17:00N 33°32' E 131°52'611.2
2018-Feb-12 16:30N 33°27' E 131°55'610.8
2018-Feb-12 15:55N 33°22' E 131°59'140 5.3
2018-Feb-11 13:13N 33°45' E 134°45'411.9
2018-Feb-11 12:52N 33°48' E 134°48'911.0
2018-Feb-11 12:01N 33°57' E 134°48'012.5
2018-Feb-11 12:00N 33°57' E 134°48'712.4
2018-Feb-11 11:27N 34°04' E 134°45'612.6
2018-Feb-11 10:58N 34°09' E 134°42'612.9
2018-Feb-11 10:30N 34°15' E 134°39'611.9
2018-Feb-11 10:00N 34°17' E 134°32'612.2
2018-Feb-11 09:30N 34°20' E 134°26'1211.9
2018-Feb-11 08:31N 34°24' E 134°12'63 4.8
2018-Feb-10 19:26N 34°09' E 132°58'912.4
2018-Feb-10 18:42N 34°04' E 132°49'413.5
2018-Feb-10 18:24N 34°01' E 132°46'513.2
2018-Feb-10 18:01N 33°57' E 132°42'1012.9
2018-Feb-10 17:16N 33°50' E 132°34'312.8
2018-Feb-10 17:00N 33°48' E 132°30'3212.4
2018-Feb-10 14:25N 33°30' E 131°59'512.2
2018-Feb-10 14:01N 33°27' E 131°54'612.1
2018-Feb-10 13:30N 33°23' E 131°49'611.9
2018-Feb-10 13:00N 33°19' E 131°43'3 0.9
2018-Feb-10 09:36N 33°17' E 131°41'0 0.0
2018-Feb-10 09:24N 33°17' E 131°41'0 0.0
2018-Feb-10 08:48N 33°17' E 131°41'0 0.0
2018-Feb-10 08:06N 33°17' E 131°41'0 0.0
2018-Feb-10 07:42N 33°17' E 131°41'0 0.0
2018-Feb-10 07:30N 33°17' E 131°41'0 0.0
2018-Feb-10 06:54N 33°17' E 131°41'0 0.0
2018-Feb-10 06:30N 33°17' E 131°41'2 4.2
2018-Feb-10 05:58N 33°19' E 131°41'4 7.0
2018-Feb-10 05:26N 33°22' E 131°42'0 0.1
2018-Feb-10 04:56N 33°22' E 131°42'0 0.0
2018-Feb-10 04:26N 33°22' E 131°42'0 0.0
2018-Feb-10 03:56N 33°22' E 131°42'0 0.0
2018-Feb-10 03:26N 33°22' E 131°42'0 0.0
2018-Feb-10 02:50N 33°22' E 131°42'0 0.0
2018-Feb-10 02:20N 33°22' E 131°42'0 0.0
2018-Feb-10 01:50N 33°22' E 131°42'0 0.0
2018-Feb-10 01:26N 33°22' E 131°42'0 0.0
2018-Feb-10 00:56N 33°22' E 131°42'0 0.0
2018-Feb-10 00:26N 33°22' E 131°42'0 0.0
2018-Feb-09 23:56N 33°22' E 131°42'0 0.1
2018-Feb-09 23:14N 33°22' E 131°42'0 0.2
2018-Feb-09 22:56N 33°22' E 131°42'0 0.0
2018-Feb-09 22:08N 33°22' E 131°42'  
Track history (hours):
 
Tides and Currents Weather Stations Pressure Air Temp Water Temp Dewpoint Dewpoint Depression Visibility Wind Speed Wind Dir Waves Ship Positions

Hoken Maru

Last reported at 2018-Feb-19 11:39 UTC. Time now 2018-Feb-21 11:53 UTC.
Position N 34°01' E 132°45'.

Length 72 m; draft 3.2 m.

Type: Ship (hazmat cat D). MMSI: 431000943.

Date/timePositionNaut miles runAvg speedWind from/ knotsBaromVisibWave heightAir tempDewpointWater temp
2018-Feb-19 11:39N 34°01' E 132°45'313.3
2018-Feb-19 11:28N 33°58' E 132°44'612.7
2018-Feb-19 10:59N 33°54' E 132°38'1212.6
2018-Feb-19 10:00N 33°50' E 132°24'812.6
2018-Feb-19 09:21N 33°50' E 132°14'412.0
2018-Feb-19 09:00N 33°48' E 132°09'612.1
2018-Feb-19 08:30N 33°46' E 132°03'612.5
2018-Feb-19 08:00N 33°45' E 131°56'612.8
2018-Feb-19 07:30N 33°46' E 131°48'713.2
2018-Feb-19 07:00N 33°48' E 131°40'613.0
2018-Feb-19 06:30N 33°49' E 131°33'713.0
2018-Feb-19 06:00N 33°50' E 131°25'612.9
2018-Feb-19 05:31N 33°52' E 131°17'713.0
2018-Feb-19 05:00N 33°54' E 131°10'712.5
2018-Feb-19 04:29N 33°57' E 131°03'5 9.7
2018-Feb-19 04:00N 33°57' E 130°57'4 8.5
2018-Feb-19 03:31N 33°54' E 130°54'2 2.8
2018-Feb-19 02:55N 33°55' E 130°52'0 0.0
2018-Feb-19 02:25N 33°55' E 130°52'0 0.0
2018-Feb-19 01:55N 33°55' E 130°52'0 0.0
2018-Feb-19 01:25N 33°55' E 130°52'0 0.0
2018-Feb-19 00:55N 33°55' E 130°52'0 0.0
2018-Feb-19 00:29N 33°55' E 130°52'2 4.9
2018-Feb-19 00:00N 33°54' E 130°55'611.6
2018-Feb-18 23:30N 33°59' E 130°60'612.0
2018-Feb-18 23:00N 33°56' E 131°06'612.5
2018-Feb-18 22:30N 33°53' E 131°12'612.6
2018-Feb-18 22:00N 33°51' E 131°20'612.2
2018-Feb-18 21:30N 33°49' E 131°27'612.0
2018-Feb-18 21:00N 33°48' E 131°34'611.8
2018-Feb-18 20:30N 33°47' E 131°41'611.4
2018-Feb-18 20:00N 33°46' E 131°47'611.4
2018-Feb-18 19:27N 33°44' E 131°55'912.0
2018-Feb-18 18:44N 33°43' E 132°05'512.0
2018-Feb-18 18:21N 33°43' E 132°11'512.8
2018-Feb-18 17:56N 33°44' E 132°17'1512.7
2018-Feb-18 16:46N 33°51' E 132°33'312.4
2018-Feb-18 16:30N 33°53' E 132°35'711.8
2018-Feb-18 15:56N 33°57' E 132°42'8410.1
2018-Feb-18 07:39N 34°25' E 134°17'210.7
2018-Feb-18 07:27N 34°25' E 134°20'511.2
2018-Feb-18 07:00N 34°27' E 134°25'611.4
2018-Feb-18 06:30N 34°28' E 134°32'611.2
2018-Feb-18 06:00N 34°30' E 134°38'611.1
2018-Feb-18 05:30N 34°33' E 134°45'611.2
2018-Feb-18 05:00N 34°35' E 134°51'510.9
2018-Feb-18 04:30N 34°37' E 134°57'5 9.5
2018-Feb-18 04:00N 34°36' E 135°03'5 9.9
2018-Feb-18 03:30N 34°32' E 135°04'611.9
2018-Feb-18 03:00N 34°26' E 135°02'612.1
2018-Feb-18 02:30N 34°20' E 135°00'611.3
2018-Feb-18 02:00N 34°15' E 135°00'611.5
2018-Feb-18 01:30N 34°10' E 135°05'4 6.7
2018-Feb-18 00:58N 34°07' E 135°07'0 0.0
2018-Feb-18 00:27N 34°07' E 135°07'0 0.0
2018-Feb-18 00:00N 34°07' E 135°07'0 0.0
2018-Feb-17 23:30N 34°07' E 135°07'0 0.0
2018-Feb-17 23:00N 34°07' E 135°07'0 0.0
2018-Feb-17 22:30N 34°07' E 135°07'0 0.8
2018-Feb-17 22:00N 34°08' E 135°07'0 0.1
2018-Feb-17 21:30N 34°07' E 135°07'0 0.0
2018-Feb-17 21:00N 34°07' E 135°07'0 0.1
2018-Feb-17 20:30N 34°07' E 135°07'0 0.0
2018-Feb-17 20:00N 34°07' E 135°07'0 0.0
2018-Feb-17 19:30N 34°07' E 135°07'3 5.9
2018-Feb-17 19:00N 34°08' E 135°04'612.6
2018-Feb-17 18:30N 34°10' E 134°57'612.5
2018-Feb-17 18:00N 34°11' E 134°49'611.8
2018-Feb-17 17:30N 34°11' E 134°42'714.0
2018-Feb-17 16:59N 34°16' E 134°36'613.3
2018-Feb-17 16:30N 34°19' E 134°28'713.2
2018-Feb-17 16:00N 34°21' E 134°21'813.6
2018-Feb-17 15:25N 34°24' E 134°12'7611.4
2018-Feb-17 08:45N 33°60' E 132°45'411.3
2018-Feb-17 08:25N 33°57' E 132°42'511.2
2018-Feb-17 07:56N 33°54' E 132°37'1511.5
2018-Feb-17 06:38N 33°50' E 132°20'211.6
2018-Feb-17 06:29N 33°50' E 132°18'911.4
2018-Feb-17 05:40N 33°47' E 132°07'211.9
2018-Feb-17 05:30N 33°46' E 132°05'1812.1
2018-Feb-17 04:03N 33°56' E 131°48'113.5
2018-Feb-17 03:58N 33°57' E 131°47'612.2
2018-Feb-17 03:28N 34°02' E 131°44'1 0.4
2018-Feb-17 00:02N 34°03' E 131°45'0 0.1
2018-Feb-16 23:50N 34°03' E 131°45'2 4.6
2018-Feb-16 23:30N 34°02' E 131°43'2 3.3
2018-Feb-16 22:53N 34°02' E 131°41'0 0.0
2018-Feb-16 22:23N 34°02' E 131°41'0 0.0
2018-Feb-16 21:47N 34°02' E 131°41'0 0.0
2018-Feb-16 21:30N 34°02' E 131°41'0 0.0
2018-Feb-16 20:59N 34°02' E 131°41'0 0.0
2018-Feb-16 20:29N 34°02' E 131°41'0 0.0
2018-Feb-16 19:59N 34°02' E 131°41'0 0.0
2018-Feb-16 19:29N 34°02' E 131°41'0 0.0
2018-Feb-16 18:47N 34°02' E 131°41'0 0.0
2018-Feb-16 18:17N 34°02' E 131°41'0 0.0
2018-Feb-16 17:53N 34°02' E 131°41'0 0.0
2018-Feb-16 17:30N 34°02' E 131°41'0 0.0
2018-Feb-16 16:59N 34°02' E 131°41'0 0.0
2018-Feb-16 16:17N 34°02' E 131°41'0 0.0
2018-Feb-16 15:53N 34°02' E 131°41'0 0.0
2018-Feb-16 15:24N 34°02' E 131°41'0 0.1
2018-Feb-16 14:59N 34°02' E 131°41'0 0.1
2018-Feb-16 14:05N 34°02' E 131°41'0 0.5
2018-Feb-16 13:59N 34°02' E 131°41'2 4.6
2018-Feb-16 13:31N 33°59' E 131°41'611.8
2018-Feb-16 12:58N 33°56' E 131°47'1011.9
2018-Feb-16 12:06N 33°50' E 131°57'211.9
2018-Feb-16 11:58N 33°49' E 131°59'510.2
2018-Feb-16 11:27N 33°47' E 132°05'811.0
2018-Feb-16 10:41N 33°50' E 132°14'211.0
2018-Feb-16 10:30N 33°50' E 132°16'11 9.9
2018-Feb-16 09:25N 33°55' E 132°28'510.9
2018-Feb-16 08:56N 33°59' E 132°32'610.2
2018-Feb-16 08:23N 34°03' E 132°27'411.4
2018-Feb-16 08:00N 34°06' E 132°23'611.7
2018-Feb-16 07:29N 34°10' E 132°18'3 6.7
2018-Feb-16 07:00N 34°12' E 132°15'0 0.0
2018-Feb-16 06:30N 34°12' E 132°15'0 0.0
2018-Feb-16 05:57N 34°12' E 132°15'0 0.0
2018-Feb-16 05:30N 34°12' E 132°15'0 0.0
2018-Feb-16 04:51N 34°12' E 132°15'0 0.0
2018-Feb-16 04:27N 34°12' E 132°15'0 0.0
2018-Feb-16 03:57N 34°12' E 132°15'1 1.9
2018-Feb-16 03:30N 34°11' E 132°15'611.2
2018-Feb-16 02:59N 34°06' E 132°17'712.4
2018-Feb-16 02:27N 33°60' E 132°13'510.5
2018-Feb-16 02:00N 33°57' E 132°09'711.9
2018-Feb-16 01:25N 33°50' E 132°09'613.4
2018-Feb-16 01:00N 33°46' E 132°04'812.9
2018-Feb-16 00:24N 33°46' E 131°55'512.7
2018-Feb-16 00:00N 33°46' E 131°49'612.5
2018-Feb-15 23:30N 33°48' E 131°41'612.2
2018-Feb-15 23:00N 33°49' E 131°34'612.1
2018-Feb-15 22:30N 33°50' E 131°27'612.0
2018-Feb-15 22:00N 33°51' E 131°20'611.8
2018-Feb-15 21:30N 33°52' E 131°13'611.9
2018-Feb-15 21:00N 33°55' E 131°07'612.5
2018-Feb-15 20:30N 33°58' E 131°00'713.5
2018-Feb-15 20:00N 33°54' E 130°54'612.7
2018-Feb-15 19:30N 33°58' E 130°48'612.5
2018-Feb-15 19:01N 33°58' E 130°40'612.2
2018-Feb-15 18:30N 33°58' E 130°33'612.2
2018-Feb-15 18:00N 33°58' E 130°25'612.2
2018-Feb-15 17:30N 33°55' E 130°19'612.5
2018-Feb-15 17:00N 33°51' E 130°13'712.8
2018-Feb-15 16:30N 33°48' E 130°06'612.8
2018-Feb-15 16:00N 33°44' E 129°60'  
2018-Feb-13 11:22N 33°41' E 129°54'410.5
2018-Feb-13 10:59N 33°43' E 129°59'511.0
2018-Feb-13 10:29N 33°46' E 130°04'510.9
2018-Feb-13 10:00N 33°49' E 130°09'511.1
2018-Feb-13 09:30N 33°52' E 130°15'510.6
2018-Feb-13 09:00N 33°55' E 130°20'510.0
2018-Feb-13 08:30N 33°58' E 130°25'510.0
2018-Feb-13 08:00N 33°58' E 130°31'510.3
2018-Feb-13 07:31N 33°58' E 130°37'510.3
2018-Feb-13 07:00N 33°58' E 130°44'510.2
2018-Feb-13 06:30N 33°58' E 130°50'5 9.4
2018-Feb-13 06:01N 33°55' E 130°54'4 7.3
2018-Feb-13 05:30N 33°57' E 130°57'4 8.0
2018-Feb-13 05:00N 33°58' E 131°02'510.5
2018-Feb-13 04:30N 33°56' E 131°07'4 7.3
2018-Feb-13 04:00N 33°56' E 131°12'1 1.1
2018-Feb-13 03:30N 33°56' E 131°11'0 0.0
2018-Feb-13 02:55N 33°56' E 131°11'0 0.0
2018-Feb-13 02:25N 33°56' E 131°11'0 0.0
2018-Feb-13 01:49N 33°56' E 131°11'0 0.0
2018-Feb-13 01:25N 33°56' E 131°11'0 0.0
2018-Feb-13 01:01N 33°56' E 131°11'0 0.1
2018-Feb-13 00:30N 33°56' E 131°11'1 3.0
2018-Feb-13 00:00N 33°55' E 131°11'0 0.3
2018-Feb-12 23:28N 33°54' E 131°11'0 0.0
2018-Feb-12 22:58N 33°54' E 131°11'0 0.0
2018-Feb-12 22:28N 33°54' E 131°11'0 0.0
2018-Feb-12 21:58N 33°54' E 131°11'0 0.0
2018-Feb-12 21:22N 33°54' E 131°11'0 0.0
2018-Feb-12 20:58N 33°54' E 131°11'1 2.2
2018-Feb-12 20:31N 33°54' E 131°12'611.9
2018-Feb-12 20:00N 33°50' E 131°18'611.4
2018-Feb-12 19:30N 33°47' E 131°24'611.7
2018-Feb-12 19:00N 33°45' E 131°30'611.3
2018-Feb-12 18:30N 33°42' E 131°37'611.3
2018-Feb-12 18:00N 33°40' E 131°43'611.1
2018-Feb-12 17:29N 33°37' E 131°49'611.9
2018-Feb-12 17:00N 33°32' E 131°52'611.2
2018-Feb-12 16:30N 33°27' E 131°55'610.8
2018-Feb-12 15:55N 33°22' E 131°59'140 5.3
2018-Feb-11 13:13N 33°45' E 134°45'411.9
2018-Feb-11 12:52N 33°48' E 134°48'911.0
2018-Feb-11 12:01N 33°57' E 134°48'012.5
2018-Feb-11 12:00N 33°57' E 134°48'712.4
2018-Feb-11 11:27N 34°04' E 134°45'612.6
2018-Feb-11 10:58N 34°09' E 134°42'612.9
2018-Feb-11 10:30N 34°15' E 134°39'611.9
2018-Feb-11 10:00N 34°17' E 134°32'612.2
2018-Feb-11 09:30N 34°20' E 134°26'1211.9
2018-Feb-11 08:31N 34°24' E 134°12'63 4.8
2018-Feb-10 19:26N 34°09' E 132°58'912.4
2018-Feb-10 18:42N 34°04' E 132°49'413.5
2018-Feb-10 18:24N 34°01' E 132°46'513.2
2018-Feb-10 18:01N 33°57' E 132°42'1012.9
2018-Feb-10 17:16N 33°50' E 132°34'312.8
2018-Feb-10 17:00N 33°48' E 132°30'3212.4
2018-Feb-10 14:25N 33°30' E 131°59'512.2
2018-Feb-10 14:01N 33°27' E 131°54'612.1
2018-Feb-10 13:30N 33°23' E 131°49'611.9
2018-Feb-10 13:00N 33°19' E 131°43'3 0.9
2018-Feb-10 09:36N 33°17' E 131°41'0 0.0
2018-Feb-10 09:24N 33°17' E 131°41'0 0.0
2018-Feb-10 08:48N 33°17' E 131°41'0 0.0
2018-Feb-10 08:06N 33°17' E 131°41'0 0.0
2018-Feb-10 07:42N 33°17' E 131°41'0 0.0
2018-Feb-10 07:30N 33°17' E 131°41'0 0.0
2018-Feb-10 06:54N 33°17' E 131°41'0 0.0
2018-Feb-10 06:30N 33°17' E 131°41'2 4.2
2018-Feb-10 05:58N 33°19' E 131°41'4 7.0
2018-Feb-10 05:26N 33°22' E 131°42'0 0.1
2018-Feb-10 04:56N 33°22' E 131°42'0 0.0
2018-Feb-10 04:26N 33°22' E 131°42'0 0.0
2018-Feb-10 03:56N 33°22' E 131°42'0 0.0
2018-Feb-10 03:26N 33°22' E 131°42'0 0.0
2018-Feb-10 02:50N 33°22' E 131°42'0 0.0
2018-Feb-10 02:20N 33°22' E 131°42'0 0.0
2018-Feb-10 01:50N 33°22' E 131°42'0 0.0
2018-Feb-10 01:26N 33°22' E 131°42'0 0.0
2018-Feb-10 00:56N 33°22' E 131°42'0 0.0
2018-Feb-10 00:26N 33°22' E 131°42'0 0.0
2018-Feb-09 23:56N 33°22' E 131°42'0 0.1
2018-Feb-09 23:14N 33°22' E 131°42'0 0.2
2018-Feb-09 22:56N 33°22' E 131°42'0 0.0
2018-Feb-09 22:08N 33°22' E 131°42'  

Dump ship's entire track history